Time;durP1;ratioP1;P1;durP2;ratioP2;P2;SDS_P1;SDS_P2;PMS_P1;PMS_P2;Temp;Humidity;BMP_temperature;BMP_pressure;BME280_temperature;BME280_humidity;BME280_pressure;Samples;Min_cycle;Max_cycle;Signal;HPM_P1;HPM_P2
2022/04/18 00:01:29;;;;;;;18.37;1.80;;;;;;;19.90;47.95;100078.50;7309150;19;159104;-35
2022/04/18 00:03:55;;;;;;;22.30;2.17;;;;;;;19.84;47.71;100063.28;7309598;19;157825;-36
2022/04/18 00:06:20;;;;;;;24.90;2.40;;;;;;;19.90;47.25;100074.09;7310569;19;128818;-35
2022/04/18 00:08:46;;;;;;;23.00;2.20;;;;;;;19.90;47.63;100073.28;7311293;19;129309;-37
2022/04/18 00:11:11;;;;;;;22.40;2.25;;;;;;;19.94;47.21;100079.91;7307632;19;158494;-34
2022/04/18 00:13:36;;;;;;;13.60;1.47;;;;;;;20.08;48.92;100072.66;7309068;19;159110;-38
2022/04/18 00:16:04;;;;;;;26.13;2.45;;;;;;;20.08;51.30;100071.88;7307252;19;129238;-39
2022/04/18 00:18:29;;;;;;;23.95;2.33;;;;;;;20.08;51.72;100058.81;7315913;19;128908;-35
2022/04/18 00:20:55;;;;;;;29.83;2.63;;;;;;;19.83;50.11;100061.63;7314948;19;133965;-34
2022/04/18 00:23:20;;;;;;;23.45;2.15;;;;;;;19.71;49.09;100042.53;7315959;19;158502;-35
2022/04/18 00:25:45;;;;;;;21.53;2.03;;;;;;;19.85;48.66;100054.53;7316212;19;155531;-37
2022/04/18 00:28:10;;;;;;;14.40;1.50;;;;;;;19.88;48.48;100059.50;7315785;19;154250;-40
2022/04/18 00:30:36;;;;;;;18.05;1.73;;;;;;;19.86;48.38;100062.25;7314979;19;130774;-31
2022/04/18 00:33:01;;;;;;;21.60;2.08;;;;;;;19.90;48.19;100047.19;7314893;19;151773;-33
2022/04/18 00:35:26;;;;;;;26.08;2.45;;;;;;;19.91;48.21;100051.44;7314774;19;155096;-33
2022/04/18 00:37:52;;;;;;;18.42;1.77;;;;;;;19.93;47.56;100049.56;7317142;19;129178;-31
2022/04/18 00:40:17;;;;;;;20.10;1.95;;;;;;;19.93;47.74;100044.34;7314107;19;159091;-36
2022/04/18 00:42:45;;;;;;;32.78;3.15;;;;;;;19.93;47.63;100039.13;7314602;19;159416;-34
2022/04/18 00:45:11;;;;;;;23.35;2.15;;;;;;;19.98;47.28;100036.97;7316472;19;128942;-36
2022/04/18 00:47:36;;;;;;;25.33;2.63;;;;;;;19.98;47.46;100029.97;7316119;19;129400;-35
2022/04/18 00:50:02;;;;;;;11.23;1.13;;;;;;;19.97;47.04;100033.53;7314504;19;158400;-38
2022/04/18 00:52:30;;;;;;;30.80;2.47;;;;;;;20.00;47.22;100029.88;7315695;19;129399;-40
2022/04/18 00:54:56;;;;;;;4.63;0.80;;;;;;;19.88;47.48;100017.75;7316480;19;128898;-34
2022/04/18 00:57:24;;;;;;;22.83;2.10;;;;;;;19.98;46.96;100024.75;7314013;19;129183;-30
2022/04/18 00:59:49;;;;;;;9.88;1.20;;;;;;;19.99;47.26;100020.38;7315174;19;129501;-35
2022/04/18 01:02:14;;;;;;;27.52;2.60;;;;;;;20.23;47.67;100023.72;7316926;19;129387;-31
2022/04/18 01:04:40;;;;;;;18.05;1.88;;;;;;;20.23;47.87;100023.72;7316347;19;129120;-35
2022/04/18 01:07:06;;;;;;;17.27;1.65;;;;;;;20.17;49.00;100013.72;7316516;19;132325;-41
2022/04/18 01:09:33;;;;;;;20.75;2.00;;;;;;;20.19;49.50;100011.84;7315730;19;129284;-30
2022/04/18 01:11:58;;;;;;;;;;;;;;;20.24;49.95;100014.94;7317022;19;129282;-40
2022/04/18 01:14:24;;;;;;;24.00;2.22;;;;;;;20.24;49.12;100009.69;7316358;19;129309;-32
2022/04/18 01:16:50;;;;;;;24.65;2.50;;;;;;;20.24;49.87;100007.09;7314490;19;129911;-32
2022/04/18 01:19:15;;;;;;;23.67;2.42;;;;;;;20.23;50.16;100000.22;7315312;19;130585;-36
2022/04/18 01:21:40;;;;;;;22.13;2.23;;;;;;;20.23;50.44;100003.63;7315769;19;150736;-34
2022/04/18 01:28:58;;;;;;;31.73;2.70;;;;;;;20.23;50.21;99992.38;7313701;19;155167;-36
2022/04/18 01:29:35;;;;;;;26.38;2.50;;;;;;;20.24;51.12;99988.81;7311263;19;129900;-41
2022/04/18 01:32:00;;;;;;;19.60;1.75;;;;;;;20.15;50.42;99985.16;7314601;19;158702;-31
2022/04/18 01:34:25;;;;;;;17.50;1.55;;;;;;;19.74;48.30;99964.03;7316309;19;128889;-34
2022/04/18 01:36:50;;;;;;;14.60;1.65;;;;;;;20.10;50.94;99975.97;7311656;19;152210;-37
2022/04/18 01:39:16;;;;;;;26.47;2.47;;;;;;;20.00;49.50;99977.69;7313158;19;158335;-39
2022/04/18 01:41:41;;;;;;;25.20;2.30;;;;;;;19.79;48.87;99969.72;7314878;19;129168;-33
2022/04/18 01:44:06;;;;;;;19.77;1.88;;;;;;;19.80;48.96;99973.19;7315571;19;128852;-34
2022/04/18 01:46:32;;;;;;;20.50;1.92;;;;;;;19.84;48.78;99969.34;7313411;19;155432;-34
2022/04/18 01:48:57;;;;;;;12.55;1.38;;;;;;;19.83;48.40;99968.56;7315126;19;129594;-39
2022/04/18 01:51:22;;;;;;;17.75;1.60;;;;;;;19.77;47.73;99957.72;7314123;19;151886;-31
2022/04/18 01:53:48;;;;;;;22.97;2.20;;;;;;;19.87;47.69;99967.34;7314882;19;135051;-35
2022/04/18 01:56:13;;;;;;;24.38;2.33;;;;;;;19.87;47.89;99963.91;7312949;19;135700;-36
2022/04/18 01:58:38;;;;;;;22.27;2.13;;;;;;;19.92;48.19;99956.53;7314155;19;129004;-29
2022/04/18 02:01:04;;;;;;;28.50;2.55;;;;;;;19.91;47.49;99958.34;7311798;19;129560;-33
2022/04/18 02:03:29;;;;;;;20.75;1.98;;;;;;;19.94;47.31;99957.25;7314234;19;128725;-34
2022/04/18 02:05:55;;;;;;;19.83;1.75;;;;;;;19.96;47.45;99953.59;7313374;19;152735;-37
2022/04/18 02:08:22;;;;;;;16.83;1.75;;;;;;;19.96;47.16;99950.16;7314042;19;131513;-31
2022/04/18 02:10:47;;;;;;;24.85;2.45;;;;;;;19.98;47.73;99950.88;7312185;19;130943;-33
2022/04/18 02:13:13;;;;;;;25.35;2.50;;;;;;;19.99;47.30;99949.91;7313112;19;128978;-36
2022/04/18 02:15:39;;;;;;;21.50;2.00;;;;;;;19.88;47.26;99934.28;7314253;19;129208;-33
2022/04/18 02:18:04;;;;;;;23.93;2.10;;;;;;;19.96;47.20;99937.09;7312838;19;158643;-38
2022/04/18 02:20:29;;;;;;;18.58;1.67;;;;;;;20.03;49.79;99940.91;7312505;19;129587;-32
2022/04/18 02:22:56;;;;;;;17.75;1.65;;;;;;;19.99;50.12;99935.09;7312241;19;154480;-36
2022/04/18 02:25:22;;;;;;;45.03;3.90;;;;;;;19.81;48.44;99926.09;7313960;19;129122;-35
2022/04/18 02:27:47;;;;;;;22.48;2.17;;;;;;;19.92;48.55;99933.06;7313622;19;130525;-33
2022/04/18 02:30:12;;;;;;;17.88;1.77;;;;;;;19.82;48.17;99919.91;7312847;19;130284;-38
2022/04/18 02:32:47;;;;;;;38.10;3.17;;;;;;;19.95;48.20;99930.22;7313652;19;128798;-32
2022/04/18 02:35:12;;;;;;;25.85;2.40;;;;;;;19.94;47.75;99939.00;7314191;19;129077;-36
2022/04/18 02:37:38;;;;;;;15.23;1.50;;;;;;;19.96;47.28;99929.28;7311172;19;129046;-33
2022/04/18 02:40:05;;;;;;;18.90;1.92;;;;;;;19.83;47.40;99912.94;7310606;19;129318;-37
2022/04/18 02:42:30;;;;;;;30.05;2.85;;;;;;;19.97;47.88;99933.53;7313260;19;129092;-38
2022/04/18 02:44:56;;;;;;;6.35;0.93;;;;;;;19.96;47.51;99931.88;7312122;19;142800;-32
2022/04/18 02:47:22;;;;;;;28.13;2.42;;;;;;;19.98;47.09;99932.59;7312736;19;130191;-38
2022/04/18 02:49:47;;;;;;;21.05;2.15;;;;;;;20.00;47.42;99922.88;7311897;19;130636;-36
2022/04/18 02:52:12;;;;;;;24.00;2.20;;;;;;;20.10;47.01;99918.56;7313342;19;128973;-32
2022/04/18 02:54:37;;;;;;;21.17;2.10;;;;;;;20.19;47.83;99912.66;7310975;19;154658;-35
2022/04/18 02:57:03;;;;;;;19.43;1.77;;;;;;;20.18;48.07;99918.81;7308953;19;159118;-33
2022/04/18 02:59:28;;;;;;;21.92;1.98;;;;;;;20.18;49.60;99918.81;7311739;19;129664;-32
2022/04/18 03:01:53;;;;;;;21.23;2.03;;;;;;;20.19;49.24;99913.47;7313713;19;128875;-36
2022/04/18 03:04:19;;;;;;;36.42;3.03;;;;;;;20.20;50.17;99907.28;7312930;19;128724;-32
2022/04/18 03:06:44;;;;;;;22.92;2.20;;;;;;;20.22;50.12;99907.16;7311640;19;158880;-38
2022/04/18 03:09:09;;;;;;;22.43;2.10;;;;;;;20.23;50.43;99909.66;7311151;19;157451;-41
2022/04/18 03:11:34;;;;;;;15.10;1.70;;;;;;;20.24;50.40;99910.50;7310784;19;155029;-31
2022/04/18 03:14:00;;;;;;;17.77;1.70;;;;;;;20.24;50.76;99907.88;7310837;19;154579;-36
2022/04/18 03:16:25;;;;;;;21.73;2.07;;;;;;;20.24;51.21;99903.50;7310416;19;146864;-32
2022/04/18 03:18:50;;;;;;;21.43;2.17;;;;;;;20.25;50.96;99901.69;7311126;19;159179;-37
2022/04/18 03:21:16;;;;;;;21.70;2.03;;;;;;;20.21;51.32;99893.28;7309678;19;129176;-29
2022/04/18 03:23:44;;;;;;;12.13;1.50;;;;;;;20.02;48.64;99894.84;7312331;19;128974;-33
2022/04/18 03:26:10;;;;;;;27.33;2.53;;;;;;;19.74;48.63;99875.34;7311832;19;130972;-33
2022/04/18 03:28:35;;;;;;;16.42;1.55;;;;;;;20.00;50.38;99896.78;7312410;19;129688;-39
2022/04/18 03:31:00;;;;;;;21.58;2.03;;;;;;;20.17;51.14;99891.03;7308837;19;154513;-39
2022/04/18 03:33:25;;;;;;;19.98;1.92;;;;;;;19.86;49.61;99897.03;7310704;19;154159;-33
2022/04/18 03:41:18;;;;;;;33.03;2.80;;;;;;;19.84;48.58;99898.91;7311972;19;128947;-40
2022/04/18 03:43:44;;;;;;;21.77;2.03;;;;;;;19.80;48.00;99872.25;7310543;19;152970;-34
2022/04/18 03:46:09;;;;;;;20.02;1.73;;;;;;;19.84;47.65;99885.88;7310024;19;153427;-36
2022/04/18 03:48:34;;;;;;;15.43;1.58;;;;;;;19.79;47.59;99878.41;7310839;19;158547;-31
2022/04/18 03:51:00;;;;;;;16.75;1.77;;;;;;;19.93;47.49;99885.97;7308215;19;155307;-33
2022/04/18 03:53:25;;;;;;;22.08;2.10;;;;;;;19.92;47.85;99884.31;7314764;19;146774;-38
2022/04/18 03:55:50;;;;;;;22.55;2.20;;;;;;;19.92;47.26;99886.94;7318917;19;130229;-34
2022/04/18 03:58:16;;;;;;;20.83;1.98;;;;;;;19.93;48.11;99879.94;7317087;19;158072;-40
2022/04/18 04:00:44;;;;;;;14.68;1.33;;;;;;;19.86;47.18;99868.31;7315562;19;154653;-39
2022/04/18 04:03:10;;;;;;;20.85;1.95;;;;;;;19.89;47.59;99879.34;7316884;19;129347;-37
2022/04/18 04:05:39;;;;;;;31.60;2.92;;;;;;;19.95;47.07;99885.88;7317977;19;130410;-38
2022/04/18 04:08:05;;;;;;;20.77;1.90;;;;;;;19.97;47.08;99883.94;7317816;19;129613;-33
2022/04/18 04:10:30;;;;;;;10.48;1.38;;;;;;;20.25;47.01;99893.88;7316038;19;128875;-30
2022/04/18 04:12:56;;;;;;;39.17;3.10;;;;;;;20.11;48.14;99868.03;7316437;19;128789;-34
2022/04/18 04:15:21;;;;;;;42.92;4.10;;;;;;;20.19;49.23;99886.53;7317352;19;130124;-33
2022/04/18 04:17:47;;;;;;;9.00;1.13;;;;;;;20.18;49.57;99887.50;7316138;19;130432;-35
2022/04/18 04:20:12;;;;;;;22.52;2.20;;;;;;;20.19;49.85;99883.94;7314109;19;154438;-37
2022/04/18 04:22:42;;;;;;;18.97;1.70;;;;;;;20.21;51.00;99884.63;7315540;19;154808;-35
2022/04/18 04:25:08;;;;;;;18.92;1.73;;;;;;;20.20;50.24;99885.56;7317241;19;130748;-37
2022/04/18 04:27:33;;;;;;;19.35;1.85;;;;;;;20.14;50.71;99870.38;7318153;19;129264;-35
2022/04/18 04:29:58;;;;;;;16.93;1.70;;;;;;;20.12;50.33;99859.22;7315042;19;154675;-37
2022/04/18 04:32:24;;;;;;;36.70;3.43;;;;;;;20.23;51.24;99877.53;7315842;19;154458;-34
2022/04/18 04:34:50;;;;;;;23.65;2.30;;;;;;;20.23;50.53;99875.72;7317301;19;129215;-33
2022/04/18 04:37:15;;;;;;;22.98;2.17;;;;;;;20.24;50.21;99880.00;7315795;19;131052;-38
2022/04/18 04:39:41;;;;;;;20.08;2.10;;;;;;;20.24;50.00;99874.78;7316425;19;129997;-35
2022/04/18 04:42:06;;;;;;;16.48;1.45;;;;;;;19.85;48.83;99871.91;7316484;19;151062;-36
2022/04/18 04:44:31;;;;;;;11.20;1.23;;;;;;;19.97;50.53;99881.34;7315381;19;159125;-32
2022/04/18 04:46:56;;;;;;;20.67;1.73;;;;;;;20.16;51.02;99878.97;7315448;19;159349;-37
2022/04/18 04:49:22;;;;;;;27.20;2.53;;;;;;;19.84;49.15;99875.44;7315524;19;154430;-35
2022/04/18 04:51:47;;;;;;;21.43;2.00;;;;;;;19.80;48.63;99868.81;7315180;19;154198;-35
2022/04/18 04:54:12;;;;;;;24.07;2.13;;;;;;;19.78;48.31;99878.53;7315131;19;158421;-34
2022/04/18 04:56:37;;;;;;;18.63;1.77;;;;;;;19.83;48.29;99876.41;7315156;19;139015;-33
2022/04/18 04:59:03;;;;;;;9.43;0.93;;;;;;;19.79;48.36;99885.41;7316026;19;154406;-40
2022/04/18 05:01:29;;;;;;;20.30;2.00;;;;;;;19.81;48.33;99881.75;7315673;19;129101;-38
2022/04/18 05:03:54;;;;;;;22.55;2.08;;;;;;;19.85;47.69;99879.72;7315315;19;130269;-34
2022/04/18 05:06:20;;;;;;;22.85;2.13;;;;;;;19.89;48.02;99878.50;7315070;19;131103;-32
2022/04/18 05:08:45;;;;;;;22.27;1.97;;;;;;;19.90;47.32;99874.97;7315336;19;154743;-40
2022/04/18 05:11:11;;;;;;;20.52;1.98;;;;;;;19.92;47.38;99878.25;7313572;19;128981;-35
2022/04/18 05:13:36;;;;;;;19.23;1.67;;;;;;;19.91;47.49;99871.41;7315963;19;129508;-38
2022/04/18 05:16:01;;;;;;;27.20;2.30;;;;;;;19.90;47.41;99869.75;7313728;19;158567;-40
2022/04/18 05:18:27;;;;;;;22.42;2.13;;;;;;;19.93;47.55;99875.53;7315918;19;128999;-36
2022/04/18 05:20:52;;;;;;;17.80;1.73;;;;;;;19.93;47.70;99869.50;7314302;19;130697;-31
2022/04/18 05:23:20;;;;;;;25.45;2.33;;;;;;;19.95;47.22;99873.63;7313492;19;158271;-37
2022/04/18 05:25:45;;;;;;;20.75;1.92;;;;;;;19.94;47.77;99872.00;7315001;19;130562;-35
2022/04/18 05:28:10;;;;;;;20.92;2.03;;;;;;;19.94;47.48;99872.00;7315961;19;129137;-31
2022/04/18 05:30:37;;;;;;;6.03;0.95;;;;;;;20.15;47.26;99864.22;7313906;19;129141;-43
2022/04/18 05:33:03;;;;;;;21.77;1.90;;;;;;;20.22;48.45;99875.84;7314245;19;130256;-37
2022/04/18 05:35:28;;;;;;;37.60;3.42;;;;;;;20.14;49.19;99883.44;7315236;19;130359;-34
2022/04/18 05:37:54;;;;;;;19.20;1.75;;;;;;;20.16;49.73;99881.56;7312980;19;153875;-35
2022/04/18 05:40:19;;;;;;;9.27;1.23;;;;;;;20.18;49.69;99885.69;7314007;19;128870;-35
2022/04/18 05:42:44;;;;;;;27.38;2.65;;;;;;;20.19;50.05;99876.94;7314127;19;136237;-37
2022/04/18 05:45:10;;;;;;;23.23;1.98;;;;;;;20.18;51.18;99882.28;7313664;19;159368;-33
2022/04/18 05:47:35;;;;;;;21.67;2.10;;;;;;;20.18;51.09;99884.91;7314550;19;129806;-38
2022/04/18 05:50:01;;;;;;;6.25;0.93;;;;;;;20.18;50.75;99882.28;7314649;19;128952;-34
2022/04/18 05:52:26;;;;;;;17.63;1.88;;;;;;;20.20;50.92;99875.97;7314041;19;158618;-34
2022/04/18 05:54:51;;;;;;;23.52;2.17;;;;;;;20.21;50.73;99882.03;7313471;19;158575;-35
2022/04/18 05:57:17;;;;;;;13.20;1.55;;;;;;;20.14;50.90;99873.00;7313119;19;128943;-35
2022/04/18 05:59:42;;;;;;;24.13;2.08;;;;;;;19.97;48.87;99874.34;7314795;19;129008;-36
2022/04/18 06:02:07;;;;;;;41.35;3.78;;;;;;;19.83;48.50;99868.56;7313876;19;128987;-37
2022/04/18 06:04:33;;;;;;;18.30;1.63;;;;;;;19.82;48.41;99872.13;7313721;19;158112;-39
2022/04/18 06:06:58;;;;;;;21.40;2.10;;;;;;;19.77;48.32;99856.00;7313021;19;154754;-36
2022/04/18 06:09:23;;;;;;;23.60;2.23;;;;;;;19.82;48.18;99862.53;7312052;19;154705;-36
2022/04/18 06:11:48;;;;;;;24.50;2.22;;;;;;;19.84;47.62;99862.41;7315653;19;129037;-36
2022/04/18 06:14:14;;;;;;;23.37;2.07;;;;;;;19.86;47.42;99863.09;7312907;19;159546;-38
2022/04/18 06:16:39;;;;;;;19.92;1.88;;;;;;;19.85;47.33;99853.63;7310670;19;154738;-39
2022/04/18 06:19:04;;;;;;;19.55;1.77;;;;;;;19.88;47.31;99866.44;7315158;19;129647;-32
2022/04/18 06:21:29;;;;;;;24.60;2.60;;;;;;;19.90;47.37;99865.34;7313343;19;157378;-36
2022/04/18 06:23:55;;;;;;;18.40;1.83;;;;;;;20.06;50.84;99873.63;7312308;19;158593;-34
2022/04/18 06:26:20;;;;;;;23.07;2.20;;;;;;;19.86;48.95;99856.13;7313788;19;140267;-37
2022/04/18 06:28:45;;;;;;;17.63;1.85;;;;;;;19.84;48.21;99859.78;7313106;19;154011;-40
2022/04/18 06:31:10;;;;;;;20.52;1.85;;;;;;;19.83;47.94;99863.34;7309881;19;158283;-36
2022/04/18 06:33:36;;;;;;;21.40;1.93;;;;;;;19.85;48.06;99861.47;7311991;19;159507;-37
2022/04/18 06:36:02;;;;;;;22.05;2.10;;;;;;;19.88;48.00;99867.28;7313810;19;128706;-33
2022/04/18 06:38:28;;;;;;;16.25;1.58;;;;;;;19.90;47.50;99867.16;7311863;19;129390;-33
2022/04/18 06:40:55;;;;;;;18.77;1.77;;;;;;;19.84;47.62;99855.41;7310907;19;130201;-41
2022/04/18 06:43:20;;;;;;;23.67;2.28;;;;;;;19.93;47.19;99864.28;7313065;19;130436;-37
2022/04/18 06:45:45;;;;;;;26.90;2.38;;;;;;;19.93;47.77;99864.28;7312212;19;138898;-36
2022/04/18 06:48:11;;;;;;;23.20;2.15;;;;;;;19.91;47.37;99866.19;7312112;19;154479;-34
2022/04/18 06:50:36;;;;;;;23.35;2.10;;;;;;;19.90;47.35;99861.94;7310446;19;129652;-40
2022/04/18 06:53:01;;;;;;;17.53;1.67;;;;;;;19.93;47.39;99859.06;7311569;19;142783;-34
2022/04/18 06:55:26;;;;;;;46.22;4.13;;;;;;;20.19;47.74;99860.44;7312495;19;136582;-37
2022/04/18 06:57:52;;;;;;;20.77;1.97;;;;;;;20.17;48.35;99860.56;7309796;19;154027;-30
2022/04/18 07:00:17;;;;;;;27.33;2.60;;;;;;;20.17;49.37;99851.88;7310278;19;159628;-36
2022/04/18 07:02:46;;;;;;;28.23;2.67;;;;;;;20.17;49.68;99859.72;7310872;19;158254;-37
2022/04/18 07:05:11;;;;;;;41.70;3.78;;;;;;;20.05;49.70;99847.63;7309727;19;129127;-36
2022/04/18 07:07:36;;;;;;;40.58;3.92;;;;;;;20.18;49.93;99864.81;7309705;19;129323;-36
2022/04/18 07:10:02;;;;;;;18.65;1.98;;;;;;;20.16;50.71;99858.88;7311234;19;129569;-34
2022/04/18 07:12:28;;;;;;;21.80;2.07;;;;;;;20.18;50.27;99858.78;7311642;19;130586;-34
2022/04/18 07:14:55;;;;;;;20.95;2.00;;;;;;;20.10;50.69;99846.31;7313281;19;128908;-35
2022/04/18 07:17:20;;;;;;;;;;;;;;;20.23;51.39;99861.84;7310974;19;129125;-33
2022/04/18 07:19:45;;;;;;;30.90;2.90;;;;;;;20.18;51.15;99859.59;7309968;19;158371;-38
2022/04/18 07:22:10;;;;;;;21.50;2.20;;;;;;;20.16;51.24;99860.69;7310276;19;156578;-32
2022/04/18 07:24:35;;;;;;;18.52;1.67;;;;;;;20.00;49.35;99855.84;7312197;19;133107;-40
2022/04/18 07:27:01;;;;;;;19.13;1.73;;;;;;;19.81;48.09;99865.25;7314501;19;154046;-32
2022/04/18 07:29:27;;;;;;;20.27;1.98;;;;;;;19.74;48.53;99861.47;7318500;19;130197;-34
2022/04/18 07:31:53;;;;;;;28.63;2.63;;;;;;;19.82;48.44;99859.06;7318332;19;129736;-37
2022/04/18 07:34:18;;;;;;;26.90;2.53;;;;;;;19.78;48.02;99857.66;7319724;19;128903;-35
2022/04/18 07:36:44;;;;;;;26.63;2.47;;;;;;;19.82;48.05;99857.28;7316928;19;154126;-33
2022/04/18 07:39:09;;;;;;;25.23;2.33;;;;;;;19.81;48.00;99855.66;7317570;19;158521;-34
2022/04/18 07:41:34;;;;;;;16.67;1.60;;;;;;;19.73;48.02;99833.72;7317776;19;158436;-31
2022/04/18 07:44:01;;;;;;;19.20;1.73;;;;;;;19.83;47.67;99851.16;7316979;19;154849;-35
2022/04/18 07:46:26;;;;;;;25.83;2.25;;;;;;;19.85;47.73;99851.84;7319159;19;129152;-34
2022/04/18 07:48:52;;;;;;;23.63;2.00;;;;;;;19.86;47.38;99853.50;7317667;19;151290;-37
2022/04/18 07:54:05;;;;;;;22.20;1.95;;;;;;;19.88;49.26;99850.78;7318897;19;130497;-36
2022/04/18 07:56:31;;;;;;;21.13;1.83;;;;;;;19.78;49.15;99849.84;7318325;19;129435;-33
2022/04/18 07:58:56;;;;;;;11.93;1.42;;;;;;;19.84;48.49;99862.41;7318430;19;130958;-39
2022/04/18 08:01:22;;;;;;;22.63;2.05;;;;;;;19.73;48.41;99842.41;7316638;19;158731;-36
2022/04/18 08:03:49;;;;;;;21.23;1.98;;;;;;;19.84;47.62;99865.84;7317883;19;129452;-37
2022/04/18 08:06:16;;;;;;;22.52;2.05;;;;;;;19.87;47.98;99860.38;7317303;19;129515;-32
2022/04/18 08:08:41;;;;;;;14.57;1.50;;;;;;;19.86;47.36;99858.72;7318121;19;129215;-39
2022/04/18 08:11:15;;;;;;;18.98;1.70;;;;;;;19.85;47.90;99859.66;7314866;19;129579;-37
2022/04/18 08:13:44;;;;;;;21.60;2.00;;;;;;;19.89;47.69;99852.41;7318304;19;128961;-34
2022/04/18 08:16:11;;;;;;;21.52;1.88;;;;;;;19.90;47.15;99854.09;7316351;19;129007;-31
2022/04/18 08:18:39;;;;;;;18.48;1.67;;;;;;;19.92;47.42;99852.16;7316320;19;130157;-34
2022/04/18 08:21:08;;;;;;;18.65;1.55;;;;;;;19.81;47.18;99829.56;7315157;19;130431;-37
2022/04/18 08:23:34;;;;;;;19.23;1.63;;;;;;;19.91;47.40;99840.09;7317245;19;128978;-34
2022/04/18 08:26:01;;;;;;;31.80;2.72;;;;;;;19.92;47.36;99845.19;7317535;19;128808;-31
2022/04/18 08:28:26;;;;;;;19.02;1.77;;;;;;;20.06;47.71;99844.91;7317770;19;129046;-34
2022/04/18 08:30:53;;;;;;;28.05;2.60;;;;;;;20.07;47.46;99825.69;7313399;19;158904;-35
2022/04/18 08:33:18;;;;;;;23.27;2.17;;;;;;;20.09;48.34;99833.38;7317361;19;128927;-31
2022/04/18 08:35:44;;;;;;;22.17;2.20;;;;;;;19.99;49.86;99822.88;7317273;19;129390;-34
2022/04/18 08:38:09;;;;;;;17.10;1.50;;;;;;;20.10;50.43;99835.03;7313890;19;159217;-34
2022/04/18 08:40:36;;;;;;;10.87;1.13;;;;;;;20.11;49.48;99821.03;7314151;19;158955;-35
2022/04/18 08:43:01;;;;;;;19.27;1.67;;;;;;;20.16;49.86;99832.78;7317338;19;129335;-32
2022/04/18 08:45:27;;;;;;;33.30;3.17;;;;;;;20.17;50.29;99826.63;7317675;19;129227;-34
2022/04/18 08:53:29;;;;;;;21.50;2.13;;;;;;;20.14;50.86;99836.44;7316796;19;129194;-29
2022/04/18 08:55:56;;;;;;;13.02;1.30;;;;;;;20.14;51.15;99831.22;7316644;19;129429;-34
2022/04/18 08:58:23;;;;;;;23.45;2.17;;;;;;;20.07;51.02;99811.78;7314672;19;130281;-34
2022/04/18 09:00:50;;;;;;;12.32;1.35;;;;;;;19.90;48.66;99828.00;7314507;19;129233;-39
2022/04/18 09:03:15;;;;;;;22.75;2.03;;;;;;;19.76;48.63;99817.81;7316162;19;129154;-35
2022/04/18 09:05:41;;;;;;;25.05;2.28;;;;;;;19.79;48.78;99821.03;7315878;19;128967;-37
2022/04/18 09:08:10;;;;;;;28.85;2.22;;;;;;;19.70;48.34;99800.06;7315788;19;129898;-37
2022/04/18 09:10:36;;;;;;;26.83;2.25;;;;;;;19.79;47.70;99814.97;7314875;19;129149;-37
2022/04/18 09:13:10;;;;;;;20.17;1.65;;;;;;;19.79;47.97;99815.81;7317067;19;128999;-32
2022/04/18 09:15:41;;;;;;;26.40;2.17;;;;;;;19.84;47.43;99818.03;7315525;19;129124;-41
2022/04/18 09:18:15;;;;;;;49.42;3.97;;;;;;;19.83;48.20;99811.19;7313331;19;130100;-37
2022/04/18 09:20:43;;;;;;;19.27;1.70;;;;;;;19.86;47.22;99806.53;7313698;19;129253;-39
2022/04/18 09:23:22;;;;;;;26.35;2.35;;;;;;;19.90;47.41;99801.91;7314794;19;129155;-41
2022/04/18 09:26:02;;;;;;;22.73;1.95;;;;;;;19.78;47.12;99787.25;7316513;19;129263;-34
2022/04/18 09:28:32;;;;;;;38.78;3.28;;;;;;;19.87;49.10;99796.91;7314867;19;129188;-32
2022/04/18 09:31:03;;;;;;;19.75;1.65;;;;;;;20.05;51.51;99796.25;7313431;19;130445;-35
2022/04/18 09:33:31;;;;;;;19.45;1.75;;;;;;;19.81;49.20;99787.00;7315814;19;130161;-32
2022/04/18 09:36:23;;;;;;;19.30;1.73;;;;;;;19.80;48.89;99780.94;7314189;19;128821;-35
2022/04/18 09:38:51;;;;;;;57.47;4.70;;;;;;;19.82;48.04;99784.25;7311786;19;129798;-39
2022/04/18 09:41:32;;;;;;;23.38;2.00;;;;;;;19.84;47.59;99776.31;7311399;19;130895;-35
2022/04/18 09:43:59;;;;;;;26.45;2.13;;;;;;;19.73;47.96;99752.88;7314351;19;128862;-37
2022/04/18 09:46:25;;;;;;;20.98;1.92;;;;;;;19.87;47.74;99768.22;7314918;19;128870;-31
2022/04/18 09:48:52;;;;;;;42.55;3.42;;;;;;;19.87;47.86;99765.59;7314797;19;130234;-35
2022/04/18 09:51:29;;;;;;;26.83;2.33;;;;;;;19.92;47.01;99773.91;7309731;19;129251;-32
2022/04/18 09:53:57;;;;;;;19.27;1.65;;;;;;;19.88;47.12;99762.91;7315385;19;129274;-32
2022/04/18 09:56:25;;;;;;;19.58;2.03;;;;;;;19.93;47.70;99758.09;7314334;19;129150;-32
2022/04/18 09:58:51;;;;;;;21.50;1.90;;;;;;;19.91;47.21;99756.59;7313090;19;130681;-37
2022/04/18 10:01:16;;;;;;;22.63;2.03;;;;;;;19.93;47.08;99749.47;7312575;19;130476;-33
2022/04/18 10:03:43;;;;;;;19.55;1.65;;;;;;;19.84;46.82;99739.78;7315108;19;129423;-41
2022/04/18 10:06:10;;;;;;;32.03;2.47;;;;;;;19.94;47.21;99748.50;7313712;19;129347;-37
2022/04/18 10:08:35;;;;;;;11.82;1.10;;;;;;;20.16;47.14;99748.44;7314142;19;129561;-39
2022/04/18 10:11:03;;;;;;;18.02;1.67;;;;;;;20.14;47.95;99742.50;7312650;19;130301;-32
2022/04/18 10:13:30;;;;;;;20.55;1.75;;;;;;;20.02;48.91;99720.00;7313116;19;128892;-36
2022/04/18 10:15:58;;;;;;;22.00;2.10;;;;;;;20.06;49.50;99731.84;7314050;19;129519;-34
2022/04/18 10:18:24;;;;;;;24.85;2.10;;;;;;;20.09;49.61;99740.25;7312685;19;129510;-34
2022/04/18 10:21:06;;;;;;;8.00;1.02;;;;;;;20.11;51.00;99727.94;7312020;19;129231;-31
2022/04/18 10:23:56;;;;;;;17.27;1.58;;;;;;;20.12;51.22;99726.13;7313475;19;128824;-32
2022/04/18 10:27:04;;;;;;;25.40;2.15;;;;;;;20.08;50.74;99696.03;7314692;19;129045;-36
2022/04/18 10:29:39;;;;;;;13.43;1.48;;;;;;;20.15;51.09;99725.91;7313716;19;129450;-34
2022/04/18 10:32:09;;;;;;;17.70;1.63;;;;;;;20.12;51.13;99723.50;7313998;19;130647;-33
2022/04/18 10:34:35;;;;;;;5.15;0.70;;;;;;;20.13;50.85;99719.97;7314836;19;128770;-33
2022/04/18 10:37:02;;;;;;;16.15;1.40;;;;;;;20.13;50.82;99718.16;7313505;19;129500;-34
2022/04/18 10:39:34;;;;;;;;;;;;;;;19.84;48.70;99708.47;7313593;19;132938;-37
2022/04/18 10:42:17;;;;;;;21.00;1.92;;;;;;;19.75;48.02;99704.81;7314007;19;129089;-36
2022/04/18 10:44:42;;;;;;;18.80;1.60;;;;;;;19.76;48.06;99701.28;7314347;19;128878;-34
2022/04/18 10:47:08;;;;;;;19.75;1.60;;;;;;;19.79;47.97;99692.38;7312327;19;154694;-34
2022/04/18 10:49:35;;;;;;;24.45;2.13;;;;;;;19.77;47.63;99695.09;7311896;19;129192;-39
2022/04/18 10:52:09;;;;;;;20.25;1.67;;;;;;;19.80;47.55;99701.88;7312666;19;132243;-34
2022/04/18 10:54:35;;;;;;;25.20;1.98;;;;;;;19.81;47.88;99691.31;7314338;19;129734;-35
2022/04/18 10:57:11;;;;;;;9.47;1.00;;;;;;;19.81;47.38;99687.84;7313037;19;130256;-34
2022/04/18 10:59:38;;;;;;;13.55;1.35;;;;;;;19.82;47.48;99684.28;7312383;19;129144;-38
2022/04/18 11:02:06;;;;;;;37.13;3.00;;;;;;;19.82;47.69;99695.56;7311548;19;132578;-40
2022/04/18 11:04:41;;;;;;;22.00;1.77;;;;;;;19.86;47.82;99690.91;7313145;19;129731;-36
2022/04/18 11:07:08;;;;;;;19.05;1.70;;;;;;;19.86;47.70;99691.75;7313407;19;128740;-39
2022/04/18 11:09:39;;;;;;;8.95;0.90;;;;;;;19.88;47.04;99683.78;7311685;19;129655;-33
2022/04/18 11:12:13;;;;;;;24.50;2.20;;;;;;;19.85;46.98;99686.66;7312022;19;129432;-36
2022/04/18 11:14:38;;;;;;;27.33;2.15;;;;;;;19.87;47.41;99687.34;7312955;19;129276;-40
2022/04/18 11:17:06;;;;;;;19.23;1.63;;;;;;;20.03;47.48;99674.69;7311291;19;153894;-34
2022/04/18 11:19:36;;;;;;;22.60;1.85;;;;;;;20.15;47.97;99679.75;7312299;19;129471;-32
2022/04/18 11:22:01;;;;;;;19.23;1.67;;;;;;;20.08;49.09;99672.53;7312123;19;130484;-33
2022/04/18 11:24:41;;;;;;;7.25;0.73;;;;;;;20.09;49.80;99682.00;7312895;19;128926;-36
2022/04/18 11:27:12;;;;;;;3.63;0.57;;;;;;;20.14;49.19;99669.41;7312363;19;128799;-36
2022/04/18 11:29:39;;;;;;;23.58;2.05;;;;;;;20.12;49.21;99666.94;7312020;19;130213;-33
2022/04/18 11:32:06;;;;;;;19.50;1.52;;;;;;;20.10;50.36;99668.84;7311307;19;129364;-37